createdAt,value
2022-08-25T00:02:07.599Z,23.81
2022-08-25T00:04:41.773Z,23.78
2022-08-25T00:07:18.616Z,23.74
2022-08-25T00:09:51.087Z,23.72
2022-08-25T00:12:23.004Z,23.69
2022-08-25T00:14:55.326Z,23.68
2022-08-25T00:17:28.679Z,23.66
2022-08-25T00:20:00.677Z,23.63
2022-08-25T00:22:32.714Z,23.62
2022-08-25T00:25:04.995Z,23.58
2022-08-25T00:27:37.413Z,23.55
2022-08-25T00:30:10.482Z,23.52
2022-08-25T00:32:51.458Z,23.47
2022-08-25T00:35:27.424Z,23.46
2022-08-25T00:37:59.657Z,23.44
2022-08-25T00:40:31.775Z,23.40
2022-08-25T00:43:06.208Z,23.38
2022-08-25T00:45:39.251Z,23.35
2022-08-25T00:48:11.278Z,23.33
2022-08-25T00:50:43.267Z,23.31
2022-08-25T00:53:15.876Z,23.28
2022-08-25T00:55:48.005Z,23.25
2022-08-25T00:58:24.904Z,23.21
2022-08-25T01:00:58.122Z,23.21
2022-08-25T01:03:35.923Z,23.17
2022-08-25T01:06:10.160Z,23.16
2022-08-25T01:08:42.614Z,23.12
2022-08-25T01:11:14.714Z,23.11
2022-08-25T01:13:53.434Z,23.09
2022-08-25T01:16:25.332Z,23.05
2022-08-25T01:18:58.335Z,23.05
2022-08-25T01:21:34.504Z,23.02
2022-08-25T01:24:06.970Z,23.01
2022-08-25T01:26:38.994Z,22.99
2022-08-25T01:29:25.437Z,22.95
2022-08-25T01:32:00.455Z,22.94
2022-08-25T01:34:33.796Z,22.93
2022-08-25T01:37:05.755Z,22.93
2022-08-25T01:39:38.832Z,22.90
2022-08-25T01:42:40.694Z,22.86
2022-08-25T01:45:13.344Z,22.84
2022-08-25T01:47:45.555Z,22.80
2022-08-25T01:50:17.875Z,22.78
2022-08-25T01:52:59.843Z,22.72
2022-08-25T01:55:51.690Z,22.70
2022-08-25T01:58:27.687Z,22.68
2022-08-25T02:01:02.373Z,22.67
2022-08-25T02:03:38.650Z,22.64
2022-08-25T02:06:16.543Z,22.58
2022-08-25T02:08:58.454Z,22.60
2022-08-25T02:11:30.650Z,22.61
2022-08-25T02:14:02.668Z,22.59
2022-08-25T02:16:37.600Z,22.58
2022-08-25T02:19:11.904Z,22.58
2022-08-25T02:21:43.909Z,22.57
2022-08-25T02:24:16.281Z,22.57
2022-08-25T02:26:48.746Z,22.55
2022-08-25T02:29:20.676Z,22.53
2022-08-25T02:31:52.902Z,22.53
2022-08-25T02:34:41.214Z,22.52
2022-08-25T02:37:14.050Z,22.51
2022-08-25T02:39:46.454Z,22.50
2022-08-25T02:42:18.518Z,22.49
2022-08-25T02:44:50.782Z,22.50
2022-08-25T02:47:26.934Z,22.50
2022-08-25T02:49:59.514Z,22.49
2022-08-25T02:52:31.818Z,22.46
2022-08-25T02:55:06.302Z,22.46
2022-08-25T02:57:38.988Z,22.43
2022-08-25T03:00:13.545Z,22.42
2022-08-25T03:02:46.842Z,22.42
2022-08-25T03:05:19.060Z,22.41
2022-08-25T03:07:50.972Z,22.43
2022-08-25T03:10:26.300Z,22.42
2022-08-25T03:12:58.197Z,22.39
2022-08-25T03:15:30.760Z,22.38
2022-08-25T03:18:04.811Z,22.38
2022-08-25T03:20:38.416Z,22.36
2022-08-25T03:23:10.365Z,22.36
2022-08-25T03:26:01.905Z,22.33
2022-08-25T03:28:34.489Z,22.36
2022-08-25T03:31:06.547Z,22.35
2022-08-25T03:33:38.800Z,22.35
2022-08-25T03:36:13.527Z,22.35
2022-08-25T03:38:45.508Z,22.36
2022-08-25T03:41:29.068Z,22.37
2022-08-25T03:44:03.993Z,22.36
2022-08-25T03:46:44.382Z,22.35
2022-08-25T03:49:20.649Z,22.29
2022-08-25T03:51:53.892Z,22.29
2022-08-25T03:54:26.202Z,22.26
2022-08-25T03:56:58.125Z,22.25
2022-08-25T03:59:30.217Z,22.24
2022-08-25T04:02:03.167Z,22.23
2022-08-25T04:04:35.169Z,22.21
2022-08-25T04:07:07.764Z,22.16
2022-08-25T04:09:39.714Z,22.13
2022-08-25T04:12:11.644Z,22.13
2022-08-25T04:14:44.573Z,22.09
2022-08-25T04:17:17.076Z,22.09
2022-08-25T04:19:49.054Z,22.06
2022-08-25T04:22:20.917Z,22.03
2022-08-25T04:24:52.870Z,22.00
2022-08-25T04:27:24.989Z,21.99
2022-08-25T04:29:56.923Z,21.97
2022-08-25T04:32:28.873Z,21.98
2022-08-25T04:35:00.769Z,21.96
2022-08-25T04:37:33.491Z,21.93
2022-08-25T04:40:06.358Z,21.92
2022-08-25T04:42:39.356Z,21.92
2022-08-25T04:45:11.353Z,21.94
2022-08-25T04:47:43.443Z,21.92
2022-08-25T04:50:15.865Z,21.92
2022-08-25T04:52:48.109Z,21.92
2022-08-25T04:55:20.199Z,21.92
2022-08-25T04:57:52.131Z,21.92
2022-08-25T05:00:23.995Z,21.92
2022-08-25T05:02:55.973Z,21.94
2022-08-25T05:05:28.157Z,21.93
2022-08-25T05:08:00.105Z,21.94
2022-08-25T05:10:33.594Z,21.94
2022-08-25T05:13:05.852Z,21.95
2022-08-25T05:15:51.045Z,21.94
2022-08-25T05:18:25.064Z,21.94
2022-08-25T05:21:01.035Z,21.97
2022-08-25T05:23:33.347Z,21.94
2022-08-25T05:26:10.934Z,21.95
2022-08-25T05:28:45.247Z,21.95
2022-08-25T05:31:17.795Z,21.96
2022-08-25T05:33:50.170Z,21.97
2022-08-25T05:36:23.161Z,22.01
2022-08-25T05:38:55.140Z,21.99
2022-08-25T05:41:29.468Z,21.98
2022-08-25T05:44:01.431Z,21.94
2022-08-25T05:46:33.405Z,21.92
2022-08-25T05:49:05.374Z,21.88
2022-08-25T05:51:37.297Z,21.88
2022-08-25T05:54:09.203Z,21.89
2022-08-25T05:56:41.211Z,21.92
2022-08-25T05:59:13.177Z,21.90
2022-08-25T06:02:03.743Z,21.90
2022-08-25T06:04:38.527Z,21.90
2022-08-25T06:07:13.203Z,21.97
2022-08-25T06:09:46.530Z,22.01
2022-08-25T06:12:19.198Z,22.00
2022-08-25T06:14:51.620Z,21.98
2022-08-25T06:17:23.684Z,21.97
2022-08-25T06:19:55.615Z,21.92
2022-08-25T06:22:27.513Z,21.87
2022-08-25T06:24:59.611Z,21.87
2022-08-25T06:27:31.592Z,21.92
2022-08-25T06:30:08.007Z,21.94
2022-08-25T06:32:41.111Z,21.97
2022-08-25T06:35:16.698Z,22.02
2022-08-25T06:37:48.681Z,22.03
2022-08-25T06:40:20.775Z,22.05
2022-08-25T06:42:52.704Z,22.03
2022-08-25T06:45:24.787Z,22.02
2022-08-25T06:47:57.901Z,22.00
2022-08-25T06:50:29.968Z,22.00
2022-08-25T06:53:01.840Z,22.02
2022-08-25T06:55:35.237Z,22.04
2022-08-25T06:58:11.205Z,22.08
2022-08-25T07:00:44.065Z,22.10
2022-08-25T07:03:16.060Z,22.17
2022-08-25T07:05:52.871Z,22.24
2022-08-25T07:08:24.769Z,22.31
2022-08-25T07:10:57.168Z,22.32
2022-08-25T07:13:31.802Z,22.32
2022-08-25T07:16:05.584Z,22.32
2022-08-25T07:18:37.579Z,22.33
2022-08-25T07:21:09.877Z,22.35
2022-08-25T07:23:42.166Z,22.41
2022-08-25T07:26:37.717Z,22.45
2022-08-25T07:29:31.691Z,22.53
2022-08-25T07:32:05.181Z,22.58
2022-08-25T07:34:55.879Z,22.67
2022-08-25T07:37:47.873Z,22.79
2022-08-25T07:40:22.400Z,22.94
2022-08-25T07:42:56.791Z,23.00
2022-08-25T07:45:32.425Z,23.00
2022-08-25T07:48:07.921Z,23.01
2022-08-25T07:50:42.480Z,23.00
2022-08-25T07:53:16.990Z,23.03
2022-08-25T07:55:48.905Z,22.99
2022-08-25T07:58:21.462Z,22.98
2022-08-25T08:00:54.230Z,23.05
2022-08-25T08:03:44.693Z,23.10
2022-08-25T08:06:21.255Z,23.11
2022-08-25T08:08:54.599Z,23.15
2022-08-25T08:11:30.255Z,23.21
2022-08-25T08:14:03.828Z,23.23
2022-08-25T08:16:35.854Z,23.22
2022-08-25T08:19:07.908Z,23.18
2022-08-25T08:21:40.921Z,23.18
2022-08-25T08:24:25.028Z,23.12
2022-08-25T08:27:03.530Z,23.11
2022-08-25T08:29:36.296Z,23.09
2022-08-25T08:32:10.667Z,23.09
2022-08-25T08:34:42.620Z,23.07
2022-08-25T08:37:16.679Z,23.07
2022-08-25T08:39:48.811Z,23.08
2022-08-25T08:42:39.750Z,23.07
2022-08-25T08:45:29.098Z,23.08
2022-08-25T08:48:39.455Z,23.09
2022-08-25T08:51:32.754Z,23.11
2022-08-25T08:54:18.610Z,23.13
2022-08-25T08:56:57.087Z,23.16
2022-08-25T08:59:34.601Z,23.20
2022-08-25T09:02:13.994Z,23.25
2022-08-25T09:04:58.177Z,23.26
2022-08-25T09:07:35.385Z,23.30
2022-08-25T09:10:08.121Z,23.35
2022-08-25T09:12:55.014Z,23.42
2022-08-25T09:16:06.456Z,23.49
2022-08-25T09:18:52.678Z,23.55
2022-08-25T09:21:40.113Z,23.61
2022-08-25T09:24:32.221Z,23.65
2022-08-25T09:27:25.614Z,23.69
2022-08-25T09:30:00.293Z,23.75
2022-08-25T09:32:36.033Z,23.85
2022-08-25T09:35:20.870Z,23.98
2022-08-25T09:38:01.241Z,24.10
2022-08-25T09:40:38.211Z,24.24
2022-08-25T09:43:23.103Z,24.35
2022-08-25T09:46:13.962Z,24.46
2022-08-25T09:49:12.266Z,24.59
2022-08-25T09:51:44.691Z,24.65
2022-08-25T09:54:20.291Z,24.75
2022-08-25T09:57:01.917Z,24.85
2022-08-25T09:59:36.571Z,24.91
2022-08-25T10:02:28.977Z,24.90
2022-08-25T10:05:23.315Z,24.84
2022-08-25T10:07:58.381Z,24.81
2022-08-25T10:10:45.256Z,24.80
2022-08-25T10:13:22.938Z,24.81
2022-08-25T10:16:36.157Z,24.84
2022-08-25T10:19:14.656Z,24.90
2022-08-25T10:22:03.609Z,24.95
2022-08-25T10:24:38.161Z,24.94
2022-08-25T10:27:50.907Z,24.99
2022-08-25T10:30:31.476Z,25.03
2022-08-25T10:33:15.628Z,25.09
2022-08-25T10:35:59.022Z,25.16
2022-08-25T10:38:53.792Z,25.26
2022-08-25T10:42:01.045Z,25.35
2022-08-25T10:45:21.958Z,25.40
2022-08-25T10:48:31.994Z,25.48
2022-08-25T10:51:19.603Z,25.58
2022-08-25T10:54:30.336Z,25.65
2022-08-25T10:57:12.444Z,25.75
2022-08-25T11:00:03.531Z,25.84
2022-08-25T11:02:56.562Z,25.99
2022-08-25T11:05:36.798Z,26.09
2022-08-25T11:08:31.315Z,26.21
2022-08-25T11:11:11.876Z,26.31
2022-08-25T11:14:11.100Z,26.37
2022-08-25T11:16:50.907Z,26.44
2022-08-25T11:19:38.131Z,26.54
2022-08-25T11:22:15.294Z,26.64
2022-08-25T11:25:07.552Z,26.77
2022-08-25T11:28:00.723Z,26.88
2022-08-25T11:30:33.302Z,27.00
2022-08-25T11:33:06.036Z,27.22
2022-08-25T11:35:44.364Z,27.72
2022-08-25T11:38:35.927Z,28.34
2022-08-25T11:41:28.482Z,29.39
2022-08-25T11:44:31.266Z,30.48
2022-08-25T11:47:21.264Z,31.40
2022-08-25T11:49:59.892Z,32.00
2022-08-25T11:52:31.769Z,32.07
2022-08-25T11:55:07.580Z,32.36
2022-08-25T11:57:43.209Z,33.03
2022-08-25T12:00:42.701Z,33.93
2022-08-25T12:03:32.761Z,34.43
2022-08-25T12:06:16.103Z,35.13
2022-08-25T12:08:51.416Z,35.78
2022-08-25T12:11:38.413Z,36.70
2022-08-25T12:14:20.446Z,37.39
2022-08-25T12:16:55.290Z,38.04
2022-08-25T12:19:36.493Z,38.60
2022-08-25T12:22:09.997Z,39.02
2022-08-25T12:24:48.309Z,39.43
2022-08-25T12:27:23.233Z,39.87
2022-08-25T12:30:05.582Z,40.20
2022-08-25T12:33:01.837Z,39.83
2022-08-25T12:35:49.989Z,39.42
2022-08-25T12:38:49.546Z,39.67
2022-08-25T12:41:26.719Z,40.27
2022-08-25T12:44:44.103Z,40.95
2022-08-25T12:47:27.136Z,41.46
2022-08-25T12:50:32.668Z,41.99
2022-08-25T12:53:36.335Z,42.34
2022-08-25T12:56:27.537Z,42.59
2022-08-25T12:59:02.344Z,42.68
2022-08-25T13:01:47.836Z,42.59
2022-08-25T13:04:33.750Z,41.63
2022-08-25T13:07:48.358Z,40.17
2022-08-25T13:10:54.607Z,39.74
2022-08-25T13:13:44.750Z,39.10
2022-08-25T13:16:20.235Z,38.11
2022-08-25T13:18:52.671Z,37.24
2022-08-25T13:21:39.600Z,37.41
2022-08-25T13:24:29.754Z,38.01
2022-08-25T13:27:07.161Z,38.66
2022-08-25T13:29:55.175Z,39.23
2022-08-25T13:32:36.151Z,39.29
2022-08-25T13:35:17.780Z,38.90
2022-08-25T13:37:53.714Z,37.83
2022-08-25T13:40:32.680Z,36.82
2022-08-25T13:43:09.302Z,36.72
2022-08-25T13:45:44.730Z,37.05
2022-08-25T13:48:39.135Z,37.74
2022-08-25T13:51:21.472Z,38.48
2022-08-25T13:54:06.087Z,38.71
2022-08-25T13:56:41.601Z,39.17
2022-08-25T13:59:41.042Z,39.50
2022-08-25T14:02:19.231Z,39.49
2022-08-25T14:04:52.755Z,39.03
2022-08-25T14:07:34.269Z,38.44
2022-08-25T14:10:30.116Z,37.56
2022-08-25T14:13:30.875Z,37.10
2022-08-25T14:16:15.696Z,36.95
2022-08-25T14:18:52.550Z,36.85
2022-08-25T14:21:30.345Z,37.13
2022-08-25T14:24:02.847Z,37.24
2022-08-25T14:26:34.944Z,37.06
2022-08-25T14:29:09.781Z,36.63
2022-08-25T14:31:44.890Z,35.99
2022-08-25T14:34:20.670Z,35.32
2022-08-25T14:36:53.140Z,34.89
2022-08-25T14:39:25.495Z,34.35
2022-08-25T14:41:57.980Z,33.91
2022-08-25T14:44:29.950Z,33.47
2022-08-25T14:47:03.534Z,33.17
2022-08-25T14:49:42.636Z,32.92
2022-08-25T14:52:27.706Z,32.68
2022-08-25T14:54:59.885Z,32.47
2022-08-25T14:57:31.951Z,32.30
2022-08-25T15:00:06.074Z,32.09
2022-08-25T15:02:42.883Z,31.97
2022-08-25T15:05:17.514Z,31.91
2022-08-25T15:08:12.221Z,31.85
2022-08-25T15:10:44.363Z,31.79
2022-08-25T15:13:16.546Z,31.67
2022-08-25T15:15:52.781Z,31.55
2022-08-25T15:18:25.929Z,31.43
2022-08-25T15:20:58.631Z,31.29
2022-08-25T15:23:32.348Z,31.18
2022-08-25T15:26:10.289Z,31.16
2022-08-25T15:28:48.429Z,31.15
2022-08-25T15:31:21.351Z,31.10
2022-08-25T15:33:53.667Z,31.05
2022-08-25T15:36:26.839Z,31.00
2022-08-25T15:38:59.146Z,30.95
2022-08-25T15:41:32.097Z,30.94
2022-08-25T15:44:07.771Z,30.92
2022-08-25T15:46:40.598Z,30.88
2022-08-25T15:49:13.051Z,30.78
2022-08-25T15:51:45.393Z,30.72
2022-08-25T15:54:17.518Z,30.64
2022-08-25T15:56:49.945Z,30.65
2022-08-25T15:59:25.217Z,30.67
2022-08-25T16:01:57.706Z,30.65
2022-08-25T16:04:30.213Z,30.62
2022-08-25T16:07:03.319Z,30.56
2022-08-25T16:09:36.358Z,30.54
2022-08-25T16:12:08.871Z,30.48
2022-08-25T16:14:42.285Z,30.41
2022-08-25T16:17:14.552Z,30.29
2022-08-25T16:19:48.115Z,30.22
2022-08-25T16:22:20.299Z,30.16
2022-08-25T16:24:52.396Z,30.09
2022-08-25T16:27:25.136Z,30.08
2022-08-25T16:29:57.312Z,30.09
2022-08-25T16:32:29.455Z,30.10
2022-08-25T16:35:01.689Z,29.99
2022-08-25T16:37:35.148Z,29.89
2022-08-25T16:40:08.550Z,29.76
2022-08-25T16:42:40.991Z,29.69
2022-08-25T16:45:13.473Z,29.66
2022-08-25T16:47:46.322Z,29.61
2022-08-25T16:50:18.662Z,29.61
2022-08-25T16:53:11.199Z,29.61
2022-08-25T16:55:43.593Z,29.59
2022-08-25T16:58:15.700Z,29.52
2022-08-25T17:00:47.753Z,29.46
2022-08-25T17:03:20.298Z,29.40
2022-08-25T17:05:53.301Z,29.30
2022-08-25T17:08:31.702Z,29.24
2022-08-25T17:11:05.563Z,29.21
2022-08-25T17:13:44.395Z,29.20
2022-08-25T17:16:18.008Z,29.21
2022-08-25T17:18:50.630Z,29.22
2022-08-25T17:21:24.426Z,29.20
2022-08-25T17:23:57.885Z,29.21
2022-08-25T17:26:30.506Z,29.21
2022-08-25T17:29:03.468Z,29.19
2022-08-25T17:31:39.855Z,29.17
2022-08-25T17:34:16.376Z,29.17
2022-08-25T17:36:48.929Z,29.16
2022-08-25T17:39:22.507Z,29.15
2022-08-25T17:41:54.843Z,29.10
2022-08-25T17:44:27.090Z,29.05
2022-08-25T17:46:59.273Z,29.01
2022-08-25T17:49:31.352Z,28.97
2022-08-25T17:52:04.196Z,28.92
2022-08-25T17:54:37.253Z,28.90
2022-08-25T17:57:10.193Z,28.88
2022-08-25T17:59:42.631Z,28.85
2022-08-25T18:02:14.788Z,28.83
2022-08-25T18:04:47.035Z,28.78
2022-08-25T18:07:19.227Z,28.74
2022-08-25T18:09:54.021Z,28.68
2022-08-25T18:12:27.533Z,28.64
2022-08-25T18:15:00.569Z,28.61
2022-08-25T18:17:32.654Z,28.56
2022-08-25T18:20:08.392Z,28.51
2022-08-25T18:22:41.909Z,28.49
2022-08-25T18:25:16.882Z,28.47
2022-08-25T18:27:48.975Z,28.43
2022-08-25T18:30:21.484Z,28.42
2022-08-25T18:32:53.486Z,28.40
2022-08-25T18:35:27.444Z,28.36
2022-08-25T18:38:18.355Z,28.34
2022-08-25T18:40:58.343Z,28.31
2022-08-25T18:43:33.840Z,28.30
2022-08-25T18:46:06.242Z,28.28
2022-08-25T18:48:40.394Z,28.24
2022-08-25T18:51:14.092Z,28.19
2022-08-25T18:53:49.821Z,28.16
2022-08-25T18:56:24.094Z,28.14
2022-08-25T18:58:57.495Z,28.12
2022-08-25T19:01:30.071Z,28.08
2022-08-25T19:04:02.904Z,28.04
2022-08-25T19:06:37.222Z,28.01
2022-08-25T19:09:09.270Z,27.97
2022-08-25T19:11:41.689Z,27.93
2022-08-25T19:14:14.203Z,27.87
2022-08-25T19:16:46.501Z,27.80
2022-08-25T19:19:18.787Z,27.74
2022-08-25T19:21:51.696Z,27.71
2022-08-25T19:24:23.896Z,27.68
2022-08-25T19:26:58.043Z,27.64
2022-08-25T19:29:31.455Z,27.60
2022-08-25T19:32:05.314Z,27.57
2022-08-25T19:34:42.018Z,27.53
2022-08-25T19:37:16.488Z,27.51
2022-08-25T19:39:52.848Z,27.49
2022-08-25T19:42:37.319Z,27.43
2022-08-25T19:45:11.179Z,27.38
2022-08-25T19:47:43.459Z,27.33
2022-08-25T19:50:17.878Z,27.29
2022-08-25T19:52:50.105Z,27.25
2022-08-25T19:55:22.226Z,27.22
2022-08-25T19:57:54.889Z,27.22
2022-08-25T20:00:32.581Z,27.21
2022-08-25T20:03:05.598Z,27.19
2022-08-25T20:05:39.038Z,27.18
2022-08-25T20:08:12.664Z,27.16
2022-08-25T20:10:46.091Z,27.11
2022-08-25T20:13:19.045Z,27.09
2022-08-25T20:15:51.724Z,27.05
2022-08-25T20:18:29.815Z,27.03
2022-08-25T20:21:01.744Z,26.99
2022-08-25T20:23:52.205Z,26.96
2022-08-25T20:26:24.977Z,26.94
2022-08-25T20:28:59.194Z,26.93
2022-08-25T20:31:32.085Z,26.92
2022-08-25T20:34:04.828Z,26.89
2022-08-25T20:36:38.822Z,26.85
2022-08-25T20:39:12.042Z,26.82
2022-08-25T20:41:43.982Z,26.77
2022-08-25T20:44:23.225Z,26.74
2022-08-25T20:46:58.289Z,26.71
2022-08-25T20:49:34.501Z,26.66
2022-08-25T20:52:09.968Z,26.63
2022-08-25T20:54:44.031Z,26.58
2022-08-25T20:57:25.918Z,26.56
2022-08-25T20:59:58.414Z,26.55
2022-08-25T21:02:31.045Z,26.53
2022-08-25T21:05:03.943Z,26.51
2022-08-25T21:07:36.352Z,26.49
2022-08-25T21:10:14.164Z,26.49
2022-08-25T21:12:46.559Z,26.49
2022-08-25T21:15:18.712Z,26.48
2022-08-25T21:17:53.240Z,26.48
2022-08-25T21:20:26.939Z,26.48
2022-08-25T21:22:58.862Z,26.44
2022-08-25T21:25:30.781Z,26.36
2022-08-25T21:28:02.836Z,26.32
2022-08-25T21:30:35.078Z,26.29
2022-08-25T21:33:07.917Z,26.23
2022-08-25T21:35:42.894Z,26.16
2022-08-25T21:38:14.926Z,26.12
2022-08-25T21:40:47.068Z,26.09
2022-08-25T21:43:20.780Z,26.03
2022-08-25T21:45:52.823Z,25.98
2022-08-25T21:48:28.022Z,25.94
2022-08-25T21:51:06.419Z,25.90
2022-08-25T21:53:41.257Z,25.89
2022-08-25T21:56:16.171Z,25.88
2022-08-25T21:58:49.264Z,25.86
2022-08-25T22:01:21.308Z,25.86
2022-08-25T22:03:54.507Z,25.83
2022-08-25T22:06:26.628Z,25.80
2022-08-25T22:09:01.134Z,25.78
2022-08-25T22:11:36.075Z,25.75
2022-08-25T22:14:09.804Z,25.74
2022-08-25T22:16:42.517Z,25.72
2022-08-25T22:19:15.304Z,25.73
2022-08-25T22:21:47.307Z,25.69
2022-08-25T22:24:21.043Z,25.69
2022-08-25T22:26:53.054Z,25.66
2022-08-25T22:29:27.268Z,25.62
2022-08-25T22:32:02.278Z,25.57
2022-08-25T22:34:34.933Z,25.53
2022-08-25T22:37:12.332Z,25.51
2022-08-25T22:39:48.674Z,25.50
2022-08-25T22:42:25.482Z,25.49
2022-08-25T22:44:57.962Z,25.48
2022-08-25T22:47:29.829Z,25.48
2022-08-25T22:50:01.810Z,25.49
2022-08-25T22:52:34.727Z,25.47
2022-08-25T22:55:11.194Z,25.45
2022-08-25T22:57:44.435Z,25.43
2022-08-25T23:00:17.367Z,25.44
2022-08-25T23:02:53.197Z,25.42
2022-08-25T23:05:25.279Z,25.41
2022-08-25T23:07:57.555Z,25.41
2022-08-25T23:10:29.396Z,25.39
2022-08-25T23:13:01.466Z,25.38
2022-08-25T23:15:33.751Z,25.35
2022-08-25T23:18:06.168Z,25.32
2022-08-25T23:20:56.742Z,25.25
2022-08-25T23:23:28.790Z,25.24
2022-08-25T23:26:00.692Z,25.22
2022-08-25T23:28:33.284Z,25.17
2022-08-25T23:31:07.591Z,25.15
2022-08-25T23:33:43.851Z,25.14
2022-08-25T23:36:17.585Z,25.12
2022-08-25T23:38:51.663Z,25.09
2022-08-25T23:41:25.386Z,25.04
2022-08-25T23:43:57.782Z,25.02
2022-08-25T23:46:29.695Z,24.99
2022-08-25T23:49:02.493Z,24.96
2022-08-25T23:51:38.236Z,24.91
2022-08-25T23:54:12.120Z,24.88
2022-08-25T23:56:51.795Z,24.84
2022-08-25T23:59:25.673Z,24.83
